KGNA

The Bay of Grand Marais Airport

Grand Marais, Minnesota, USA
METAR KGNA 190156Z AUTO 26003KT 01/M02 A2970 RMK AO1 SLP067 T00111022
Observed Flight Rules
Jan-19 @ 01:56 UTC (2 hours ago)
Wind
260° at 3 knots
Temperatures Readings
Current 1°C / 34°F
Dewpoint -2°C / 28°F
Humidity 81%
Altimeter 29.7" Hg
Pressure 1006.7 hPa
Elevation 185
METAR KGNA 190156Z AUTO 26003KT 01/M02 A2970 RMK AO1 SLP067 T00111022
Observed Flight Rules
Jan-19 @ 01:56 UTC
(2 hours ago)
Wind
260° at 3 knots
Temperature Dewpoint
1°C / 34°F -2°C / 28°F
Humidity Altimeter Pressure
81% 29.7" Hg 1006.7 hPa